sensor_id;sensor_type;location;lat;lon;timestamp;temperature;humidity
66608;DHT22;53462;39.616;8.824;2023-04-15T13:47:01;21.00;48.80
66608;DHT22;53462;39.616;8.824;2023-04-15T13:49:28;20.60;50.10
66608;DHT22;53462;39.616;8.824;2023-04-15T13:51:54;20.50;50.20
66608;DHT22;53462;39.616;8.824;2023-04-15T13:54:20;20.10;50.70
66608;DHT22;53462;39.616;8.824;2023-04-15T13:56:46;19.70;51.20
66608;DHT22;53462;39.616;8.824;2023-04-15T13:59:12;19.40;53.20
66608;DHT22;53462;39.616;8.824;2023-04-15T14:01:38;19.50;53.30
66608;DHT22;53462;39.616;8.824;2023-04-15T14:04:05;19.70;53.20
66608;DHT22;53462;39.616;8.824;2023-04-15T14:06:31;19.70;52.80
66608;DHT22;53462;39.616;8.824;2023-04-15T14:08:57;19.50;52.30
66608;DHT22;53462;39.616;8.824;2023-04-15T14:11:23;19.30;52.50
66608;DHT22;53462;39.616;8.824;2023-04-15T14:13:49;19.40;52.70
66608;DHT22;53462;39.616;8.824;2023-04-15T14:16:15;19.40;53.50
66608;DHT22;53462;39.616;8.824;2023-04-15T14:18:42;19.40;51.10
66608;DHT22;53462;39.616;8.824;2023-04-15T14:21:09;19.50;50.90
66608;DHT22;53462;39.616;8.824;2023-04-15T14:23:35;19.40;50.40
66608;DHT22;53462;39.616;8.824;2023-04-15T14:26:01;19.20;51.60
66608;DHT22;53462;39.616;8.824;2023-04-15T14:28:27;19.10;52.30
66608;DHT22;53462;39.616;8.824;2023-04-15T14:30:53;19.10;52.40
66608;DHT22;53462;39.616;8.824;2023-04-15T14:33:19;19.10;53.10
66608;DHT22;53462;39.616;8.824;2023-04-15T14:35:45;19.20;52.00
66608;DHT22;53462;39.616;8.824;2023-04-15T14:38:11;19.10;52.20
66608;DHT22;53462;39.616;8.824;2023-04-15T14:40:37;19.20;52.40
66608;DHT22;53462;39.616;8.824;2023-04-15T14:43:03;19.30;53.40
66608;DHT22;53462;39.616;8.824;2023-04-15T14:45:29;19.30;53.60
66608;DHT22;53462;39.616;8.824;2023-04-15T14:47:55;19.10;52.60
66608;DHT22;53462;39.616;8.824;2023-04-15T14:50:21;18.90;51.50
66608;DHT22;53462;39.616;8.824;2023-04-15T14:52:47;18.60;51.90
66608;DHT22;53462;39.616;8.824;2023-04-15T14:55:13;18.60;53.50
66608;DHT22;53462;39.616;8.824;2023-04-15T14:57:40;18.80;51.70
66608;DHT22;53462;39.616;8.824;2023-04-15T15:00:08;18.70;52.10
66608;DHT22;53462;39.616;8.824;2023-04-15T15:02:36;18.60;53.20
66608;DHT22;53462;39.616;8.824;2023-04-15T15:05:02;18.50;53.20
66608;DHT22;53462;39.616;8.824;2023-04-15T15:07:28;18.40;53.70
66608;DHT22;53462;39.616;8.824;2023-04-15T15:09:54;18.50;54.20
66608;DHT22;53462;39.616;8.824;2023-04-15T15:12:21;18.30;54.10
66608;DHT22;53462;39.616;8.824;2023-04-15T15:14:48;18.10;55.00
66608;DHT22;53462;39.616;8.824;2023-04-15T15:17:14;18.20;54.10
66608;DHT22;53462;39.616;8.824;2023-04-15T15:19:40;18.00;55.00
66608;DHT22;53462;39.616;8.824;2023-04-15T15:22:06;18.00;55.60
66608;DHT22;53462;39.616;8.824;2023-04-15T15:24:31;17.90;56.30
66608;DHT22;53462;39.616;8.824;2023-04-15T15:26:57;18.00;56.60
66608;DHT22;53462;39.616;8.824;2023-04-15T15:29:23;18.20;56.90
66608;DHT22;53462;39.616;8.824;2023-04-15T15:31:49;18.30;56.80
66608;DHT22;53462;39.616;8.824;2023-04-15T15:34:15;18.20;57.40
66608;DHT22;53462;39.616;8.824;2023-04-15T15:36:41;18.20;57.80
66608;DHT22;53462;39.616;8.824;2023-04-15T15:39:08;18.20;57.90
66608;DHT22;53462;39.616;8.824;2023-04-15T15:41:34;18.20;58.30
66608;DHT22;53462;39.616;8.824;2023-04-15T15:44:01;18.20;58.30
66608;DHT22;53462;39.616;8.824;2023-04-15T15:46:27;18.00;59.00
66608;DHT22;53462;39.616;8.824;2023-04-15T15:48:56;17.90;60.70
66608;DHT22;53462;39.616;8.824;2023-04-15T15:51:22;18.00;60.60
66608;DHT22;53462;39.616;8.824;2023-04-15T15:53:48;17.60;60.40
66608;DHT22;53462;39.616;8.824;2023-04-15T15:56:15;17.70;61.40
66608;DHT22;53462;39.616;8.824;2023-04-15T15:58:41;17.50;62.10
66608;DHT22;53462;39.616;8.824;2023-04-15T16:01:10;17.40;63.40
66608;DHT22;53462;39.616;8.824;2023-04-15T16:03:36;17.30;63.60
66608;DHT22;53462;39.616;8.824;2023-04-15T16:06:03;17.20;64.60
66608;DHT22;53462;39.616;8.824;2023-04-15T16:08:29;17.00;65.70
66608;DHT22;53462;39.616;8.824;2023-04-15T16:10:55;16.80;66.30
66608;DHT22;53462;39.616;8.824;2023-04-15T16:13:21;16.70;66.50
66608;DHT22;53462;39.616;8.824;2023-04-15T16:15:47;16.70;67.20
66608;DHT22;53462;39.616;8.824;2023-04-15T16:18:15;16.60;68.20
66608;DHT22;53462;39.616;8.824;2023-04-15T16:20:41;16.50;68.30
66608;DHT22;53462;39.616;8.824;2023-04-15T16:23:15;16.50;69.60
66608;DHT22;53462;39.616;8.824;2023-04-15T16:25:41;16.70;69.80
66608;DHT22;53462;39.616;8.824;2023-04-15T16:28:08;16.90;69.10
66608;DHT22;53462;39.616;8.824;2023-04-15T16:30:36;16.60;69.40
66608;DHT22;53462;39.616;8.824;2023-04-15T16:33:04;16.50;70.50
66608;DHT22;53462;39.616;8.824;2023-04-15T16:35:30;16.40;71.30
66608;DHT22;53462;39.616;8.824;2023-04-15T16:37:56;16.10;72.20
66608;DHT22;53462;39.616;8.824;2023-04-15T16:40:22;16.10;72.40
66608;DHT22;53462;39.616;8.824;2023-04-15T16:42:49;16.00;73.30
66608;DHT22;53462;39.616;8.824;2023-04-15T16:45:15;15.90;73.10
66608;DHT22;53462;39.616;8.824;2023-04-15T16:47:41;15.70;74.10
66608;DHT22;53462;39.616;8.824;2023-04-15T16:50:08;15.80;75.10
66608;DHT22;53462;39.616;8.824;2023-04-15T16:52:34;15.80;75.20
66608;DHT22;53462;39.616;8.824;2023-04-15T16:55:00;15.90;75.20
66608;DHT22;53462;39.616;8.824;2023-04-15T16:57:26;15.80;75.30
66608;DHT22;53462;39.616;8.824;2023-04-15T16:59:52;15.70;76.20
66608;DHT22;53462;39.616;8.824;2023-04-15T17:02:18;15.60;77.40
66608;DHT22;53462;39.616;8.824;2023-04-15T17:04:44;15.60;81.10
66608;DHT22;53462;39.616;8.824;2023-04-15T17:07:10;15.60;83.60
66608;DHT22;53462;39.616;8.824;2023-04-15T17:09:38;15.30;86.60
66608;DHT22;53462;39.616;8.824;2023-04-15T17:12:04;15.00;89.90
66608;DHT22;53462;39.616;8.824;2023-04-15T17:14:31;15.00;91.60
66608;DHT22;53462;39.616;8.824;2023-04-15T17:16:58;14.90;93.40
66608;DHT22;53462;39.616;8.824;2023-04-15T17:19:24;15.00;94.50
66608;DHT22;53462;39.616;8.824;2023-04-15T17:21:51;14.90;94.90
66608;DHT22;53462;39.616;8.824;2023-04-15T17:24:17;14.80;95.80
66608;DHT22;53462;39.616;8.824;2023-04-15T17:26:43;14.90;96.50
66608;DHT22;53462;39.616;8.824;2023-04-15T17:29:09;14.90;96.50
66608;DHT22;53462;39.616;8.824;2023-04-15T17:31:35;14.70;96.40
66608;DHT22;53462;39.616;8.824;2023-04-15T17:34:01;14.80;98.40
66608;DHT22;53462;39.616;8.824;2023-04-15T17:36:27;14.60;99.20
66608;DHT22;53462;39.616;8.824;2023-04-15T17:38:54;14.50;99.90
66608;DHT22;53462;39.616;8.824;2023-04-15T17:41:21;14.50;99.90
66608;DHT22;53462;39.616;8.824;2023-04-15T17:43:47;14.40;99.90
66608;DHT22;53462;39.616;8.824;2023-04-15T17:46:13;14.40;99.90
66608;DHT22;53462;39.616;8.824;2023-04-15T17:48:39;14.40;99.90
66608;DHT22;53462;39.616;8.824;2023-04-15T17:51:06;14.40;99.90
66608;DHT22;53462;39.616;8.824;2023-04-15T17:53:32;14.40;99.90
66608;DHT22;53462;39.616;8.824;2023-04-15T17:55:58;14.50;99.90
66608;DHT22;53462;39.616;8.824;2023-04-15T17:58:25;14.40;99.90
66608;DHT22;53462;39.616;8.824;2023-04-15T18:00:51;14.40;99.90
66608;DHT22;53462;39.616;8.824;2023-04-15T18:03:17;14.30;99.90
66608;DHT22;53462;39.616;8.824;2023-04-15T18:05:43;14.20;99.90
66608;DHT22;53462;39.616;8.824;2023-04-15T18:08:09;14.20;99.90
66608;DHT22;53462;39.616;8.824;2023-04-15T18:10:36;14.00;99.90
66608;DHT22;53462;39.616;8.824;2023-04-15T18:13:02;14.00;99.90
66608;DHT22;53462;39.616;8.824;2023-04-15T18:15:29;14.00;99.90
66608;DHT22;53462;39.616;8.824;2023-04-15T18:17:59;13.80;99.90
66608;DHT22;53462;39.616;8.824;2023-04-15T18:20:25;13.60;99.90
66608;DHT22;53462;39.616;8.824;2023-04-15T18:22:52;13.50;99.90
66608;DHT22;53462;39.616;8.824;2023-04-15T18:25:18;13.70;99.90
66608;DHT22;53462;39.616;8.824;2023-04-15T18:27:45;13.70;99.90
66608;DHT22;53462;39.616;8.824;2023-04-15T18:30:11;13.50;99.90
66608;DHT22;53462;39.616;8.824;2023-04-15T18:32:38;13.50;99.90
66608;DHT22;53462;39.616;8.824;2023-04-15T18:35:07;13.50;99.90
66608;DHT22;53462;39.616;8.824;2023-04-15T18:37:34;13.40;99.90
66608;DHT22;53462;39.616;8.824;2023-04-15T18:40:00;13.30;99.90
66608;DHT22;53462;39.616;8.824;2023-04-15T18:42:26;13.30;99.90
66608;DHT22;53462;39.616;8.824;2023-04-15T18:44:52;13.30;99.90
66608;DHT22;53462;39.616;8.824;2023-04-15T18:47:18;13.30;99.90
66608;DHT22;53462;39.616;8.824;2023-04-15T18:49:44;13.20;99.90
66608;DHT22;53462;39.616;8.824;2023-04-15T18:52:10;13.20;99.90
66608;DHT22;53462;39.616;8.824;2023-04-15T18:54:38;13.10;99.90
66608;DHT22;53462;39.616;8.824;2023-04-15T18:57:05;13.00;99.90
66608;DHT22;53462;39.616;8.824;2023-04-15T18:59:31;13.00;99.90
66608;DHT22;53462;39.616;8.824;2023-04-15T19:01:58;13.00;99.90
66608;DHT22;53462;39.616;8.824;2023-04-15T19:04:25;12.90;99.90
66608;DHT22;53462;39.616;8.824;2023-04-15T19:06:53;12.80;99.90
66608;DHT22;53462;39.616;8.824;2023-04-15T19:09:19;12.70;99.90
66608;DHT22;53462;39.616;8.824;2023-04-15T19:11:46;12.70;99.90
66608;DHT22;53462;39.616;8.824;2023-04-15T19:14:12;12.80;99.90
66608;DHT22;53462;39.616;8.824;2023-04-15T19:16:39;12.70;99.90
66608;DHT22;53462;39.616;8.824;2023-04-15T19:19:06;12.70;99.90
66608;DHT22;53462;39.616;8.824;2023-04-15T19:21:33;12.80;99.90
66608;DHT22;53462;39.616;8.824;2023-04-15T19:24:00;12.80;99.10
66608;DHT22;53462;39.616;8.824;2023-04-15T19:26:27;12.70;98.10
66608;DHT22;53462;39.616;8.824;2023-04-15T19:28:54;12.70;97.30
66608;DHT22;53462;39.616;8.824;2023-04-15T19:31:24;12.70;98.00
66608;DHT22;53462;39.616;8.824;2023-04-15T19:33:51;12.70;97.80
66608;DHT22;53462;39.616;8.824;2023-04-15T19:36:17;12.80;96.30
66608;DHT22;53462;39.616;8.824;2023-04-15T19:38:43;12.80;96.10
66608;DHT22;53462;39.616;8.824;2023-04-15T19:41:09;12.80;97.00
66608;DHT22;53462;39.616;8.824;2023-04-15T19:43:35;12.80;97.20
66608;DHT22;53462;39.616;8.824;2023-04-15T19:46:01;12.70;95.60
66608;DHT22;53462;39.616;8.824;2023-04-15T19:48:28;12.70;95.90
66608;DHT22;53462;39.616;8.824;2023-04-15T19:50:55;12.70;96.10
66608;DHT22;53462;39.616;8.824;2023-04-15T19:53:22;12.60;95.40
66608;DHT22;53462;39.616;8.824;2023-04-15T19:55:48;12.60;96.60
66608;DHT22;53462;39.616;8.824;2023-04-15T19:58:14;12.50;96.90
66608;DHT22;53462;39.616;8.824;2023-04-15T20:00:40;12.50;97.80
66608;DHT22;53462;39.616;8.824;2023-04-15T20:03:06;12.50;95.90
66608;DHT22;53462;39.616;8.824;2023-04-15T20:05:32;12.50;95.70
66608;DHT22;53462;39.616;8.824;2023-04-15T20:08:00;12.50;94.70
66608;DHT22;53462;39.616;8.824;2023-04-15T20:10:26;12.50;94.30
66608;DHT22;53462;39.616;8.824;2023-04-15T20:12:52;12.60;94.70
66608;DHT22;53462;39.616;8.824;2023-04-15T20:15:18;12.60;93.50
66608;DHT22;53462;39.616;8.824;2023-04-15T20:17:46;12.60;93.20
66608;DHT22;53462;39.616;8.824;2023-04-15T20:20:12;12.70;92.50
66608;DHT22;53462;39.616;8.824;2023-04-15T20:22:39;12.50;92.00
66608;DHT22;53462;39.616;8.824;2023-04-15T20:25:06;12.50;92.10
66608;DHT22;53462;39.616;8.824;2023-04-15T20:27:32;12.60;91.70
66608;DHT22;53462;39.616;8.824;2023-04-15T20:29:59;12.60;92.00
66608;DHT22;53462;39.616;8.824;2023-04-15T20:32:25;12.60;91.50
66608;DHT22;53462;39.616;8.824;2023-04-15T20:34:52;12.70;91.80
66608;DHT22;53462;39.616;8.824;2023-04-15T20:37:18;12.80;91.00
66608;DHT22;53462;39.616;8.824;2023-04-15T20:39:44;12.70;91.40
66608;DHT22;53462;39.616;8.824;2023-04-15T20:42:10;12.70;90.90
66608;DHT22;53462;39.616;8.824;2023-04-15T20:44:36;12.80;91.10
66608;DHT22;53462;39.616;8.824;2023-04-15T20:47:06;12.80;91.20
66608;DHT22;53462;39.616;8.824;2023-04-15T20:49:33;12.80;91.40
66608;DHT22;53462;39.616;8.824;2023-04-15T20:52:00;12.70;91.90
66608;DHT22;53462;39.616;8.824;2023-04-15T20:54:25;12.60;92.00
66608;DHT22;53462;39.616;8.824;2023-04-15T20:56:51;12.70;92.20
66608;DHT22;53462;39.616;8.824;2023-04-15T20:59:17;12.50;92.70
66608;DHT22;53462;39.616;8.824;2023-04-15T21:01:43;12.50;92.40
66608;DHT22;53462;39.616;8.824;2023-04-15T21:04:10;12.50;91.80
66608;DHT22;53462;39.616;8.824;2023-04-15T21:06:36;12.50;91.50
66608;DHT22;53462;39.616;8.824;2023-04-15T21:09:02;12.50;91.80
66608;DHT22;53462;39.616;8.824;2023-04-15T21:11:28;12.40;91.40
66608;DHT22;53462;39.616;8.824;2023-04-15T21:13:54;12.50;91.50
66608;DHT22;53462;39.616;8.824;2023-04-15T21:16:20;12.50;91.10
66608;DHT22;53462;39.616;8.824;2023-04-15T21:18:46;12.60;90.00
66608;DHT22;53462;39.616;8.824;2023-04-15T21:21:12;12.50;89.20
66608;DHT22;53462;39.616;8.824;2023-04-15T21:23:38;12.60;88.70
66608;DHT22;53462;39.616;8.824;2023-04-15T21:26:03;12.60;88.50
66608;DHT22;53462;39.616;8.824;2023-04-15T21:28:29;12.60;88.10
66608;DHT22;53462;39.616;8.824;2023-04-15T21:30:56;12.50;88.10
66608;DHT22;53462;39.616;8.824;2023-04-15T21:33:22;12.60;86.80
66608;DHT22;53462;39.616;8.824;2023-04-15T21:35:48;12.60;86.70
66608;DHT22;53462;39.616;8.824;2023-04-15T21:38:14;12.60;85.40
66608;DHT22;53462;39.616;8.824;2023-04-15T21:40:40;12.60;84.10
66608;DHT22;53462;39.616;8.824;2023-04-15T21:43:06;12.60;83.30
66608;DHT22;53462;39.616;8.824;2023-04-15T21:45:33;12.60;82.80
66608;DHT22;53462;39.616;8.824;2023-04-15T21:47:59;12.60;81.80
66608;DHT22;53462;39.616;8.824;2023-04-15T21:50:25;12.70;79.00
66608;DHT22;53462;39.616;8.824;2023-04-15T21:52:52;12.70;78.40
66608;DHT22;53462;39.616;8.824;2023-04-15T21:55:18;12.70;78.20
66608;DHT22;53462;39.616;8.824;2023-04-15T21:57:44;12.70;78.90
66608;DHT22;53462;39.616;8.824;2023-04-15T22:00:10;12.60;79.10
66608;DHT22;53462;39.616;8.824;2023-04-15T22:02:36;12.60;79.00
66608;DHT22;53462;39.616;8.824;2023-04-15T22:05:03;12.60;79.40
66608;DHT22;53462;39.616;8.824;2023-04-15T22:07:29;12.40;79.80
66608;DHT22;53462;39.616;8.824;2023-04-15T22:09:55;12.40;80.40
66608;DHT22;53462;39.616;8.824;2023-04-15T22:12:21;12.40;81.30
66608;DHT22;53462;39.616;8.824;2023-04-15T22:14:47;12.30;82.10
66608;DHT22;53462;39.616;8.824;2023-04-15T22:17:13;12.30;83.10
66608;DHT22;53462;39.616;8.824;2023-04-15T22:19:39;12.30;84.00
66608;DHT22;53462;39.616;8.824;2023-04-15T22:22:06;12.30;84.50
66608;DHT22;53462;39.616;8.824;2023-04-15T22:24:32;12.20;84.80
66608;DHT22;53462;39.616;8.824;2023-04-15T22:26:58;12.20;85.60
66608;DHT22;53462;39.616;8.824;2023-04-15T22:29:24;12.20;86.20
66608;DHT22;53462;39.616;8.824;2023-04-15T22:31:51;12.10;86.30
66608;DHT22;53462;39.616;8.824;2023-04-15T22:34:17;12.00;86.70
66608;DHT22;53462;39.616;8.824;2023-04-15T22:36:50;12.00;87.10
66608;DHT22;53462;39.616;8.824;2023-04-15T22:39:16;12.00;87.70
66608;DHT22;53462;39.616;8.824;2023-04-15T22:41:43;12.00;88.20
66608;DHT22;53462;39.616;8.824;2023-04-15T22:44:09;11.80;88.80
66608;DHT22;53462;39.616;8.824;2023-04-15T22:46:35;11.80;89.50
66608;DHT22;53462;39.616;8.824;2023-04-15T22:49:01;11.80;89.80
66608;DHT22;53462;39.616;8.824;2023-04-15T22:51:27;11.70;90.30
66608;DHT22;53462;39.616;8.824;2023-04-15T22:53:54;11.60;90.80
66608;DHT22;53462;39.616;8.824;2023-04-15T22:56:21;11.70;91.00
66608;DHT22;53462;39.616;8.824;2023-04-15T22:58:48;11.70;90.20
66608;DHT22;53462;39.616;8.824;2023-04-15T23:01:14;11.80;90.10
66608;DHT22;53462;39.616;8.824;2023-04-15T23:03:47;11.80;90.30
66608;DHT22;53462;39.616;8.824;2023-04-15T23:06:13;11.70;91.10
66608;DHT22;53462;39.616;8.824;2023-04-15T23:08:39;11.80;91.50
66608;DHT22;53462;39.616;8.824;2023-04-15T23:11:05;11.80;91.90
66608;DHT22;53462;39.616;8.824;2023-04-15T23:13:35;11.80;92.00
66608;DHT22;53462;39.616;8.824;2023-04-15T23:16:01;11.70;92.20
66608;DHT22;53462;39.616;8.824;2023-04-15T23:18:28;11.80;92.80
66608;DHT22;53462;39.616;8.824;2023-04-15T23:20:56;11.70;93.10
66608;DHT22;53462;39.616;8.824;2023-04-15T23:23:23;11.70;94.00
66608;DHT22;53462;39.616;8.824;2023-04-15T23:25:49;11.70;94.70
66608;DHT22;53462;39.616;8.824;2023-04-15T23:28:15;11.80;95.20
66608;DHT22;53462;39.616;8.824;2023-04-15T23:30:41;11.80;95.80
66608;DHT22;53462;39.616;8.824;2023-04-15T23:33:07;11.80;96.60
66608;DHT22;53462;39.616;8.824;2023-04-15T23:35:33;11.90;97.30
66608;DHT22;53462;39.616;8.824;2023-04-15T23:37:59;11.90;98.20
66608;DHT22;53462;39.616;8.824;2023-04-15T23:40:25;12.00;99.90
66608;DHT22;53462;39.616;8.824;2023-04-15T23:42:51;11.90;99.90
66608;DHT22;53462;39.616;8.824;2023-04-15T23:45:17;11.80;99.90
66608;DHT22;53462;39.616;8.824;2023-04-15T23:47:42;11.60;99.90
66608;DHT22;53462;39.616;8.824;2023-04-15T23:50:09;11.50;99.90
66608;DHT22;53462;39.616;8.824;2023-04-15T23:52:35;11.50;99.90
66608;DHT22;53462;39.616;8.824;2023-04-15T23:55:02;11.50;99.90
66608;DHT22;53462;39.616;8.824;2023-04-15T23:57:28;11.40;99.90
66608;DHT22;53462;39.616;8.824;2023-04-15T23:59:54;11.20;99.90
